createdAt,value
2022-09-02T00:01:42.468Z,3.40
2022-09-02T00:04:14.857Z,3.60
2022-09-02T00:06:45.292Z,3.50
2022-09-02T00:09:17.202Z,3.10
2022-09-02T00:11:49.587Z,3.50
2022-09-02T00:14:26.008Z,3.67
2022-09-02T00:16:56.525Z,3.20
2022-09-02T00:19:28.282Z,3.27
2022-09-02T00:21:59.161Z,3.30
2022-09-02T00:24:28.063Z,3.13
2022-09-02T00:26:57.026Z,3.90
2022-09-02T00:29:26.213Z,3.20
2022-09-02T00:31:57.150Z,3.57
2022-09-02T00:34:26.463Z,3.40
2022-09-02T00:36:55.208Z,3.93
2022-09-02T00:39:23.829Z,3.23
2022-09-02T00:41:52.725Z,3.60
2022-09-02T00:44:22.672Z,3.60
2022-09-02T00:46:51.434Z,3.87
2022-09-02T00:49:26.951Z,3.37
2022-09-02T00:52:02.026Z,3.40
2022-09-02T00:54:35.474Z,3.30
2022-09-02T00:57:11.053Z,4.27
2022-09-02T00:59:49.718Z,3.70
2022-09-02T01:02:18.694Z,3.80
2022-09-02T01:04:48.661Z,3.13
2022-09-02T01:07:17.520Z,3.27
2022-09-02T01:09:46.215Z,3.03
2022-09-02T01:12:16.203Z,3.50
2022-09-02T01:14:45.138Z,3.60
2022-09-02T01:17:14.105Z,3.23
2022-09-02T01:19:54.664Z,3.57
2022-09-02T01:22:29.065Z,3.63
2022-09-02T01:25:05.008Z,3.70
2022-09-02T01:27:33.748Z,3.80
2022-09-02T01:30:02.917Z,3.60
2022-09-02T01:32:32.107Z,3.60
2022-09-02T01:35:00.877Z,3.53
2022-09-02T01:37:32.266Z,3.57
2022-09-02T01:40:01.298Z,3.67
2022-09-02T01:42:29.953Z,3.37
2022-09-02T01:44:59.114Z,3.27
2022-09-02T01:47:29.361Z,3.37
2022-09-02T01:49:58.426Z,3.50
2022-09-02T01:52:31.729Z,3.40
2022-09-02T01:55:00.979Z,2.80
2022-09-02T01:57:29.512Z,3.33
2022-09-02T01:59:58.052Z,3.40
2022-09-02T02:02:28.075Z,2.93
2022-09-02T02:04:56.737Z,3.20
2022-09-02T02:07:26.057Z,3.40
2022-09-02T02:09:56.470Z,3.23
2022-09-02T02:12:25.892Z,3.17
2022-09-02T02:14:56.477Z,3.37
2022-09-02T02:17:25.737Z,3.47
2022-09-02T02:19:54.180Z,2.70
2022-09-02T02:22:22.904Z,3.40
2022-09-02T02:24:51.378Z,3.40
2022-09-02T02:27:22.089Z,3.80
2022-09-02T02:29:50.869Z,3.70
2022-09-02T02:32:23.513Z,3.33
2022-09-02T02:34:52.539Z,3.70
2022-09-02T02:37:25.415Z,3.10
2022-09-02T02:39:56.614Z,3.33
2022-09-02T02:42:28.571Z,3.77
2022-09-02T02:44:57.247Z,4.10
2022-09-02T02:47:26.844Z,3.90
2022-09-02T02:49:55.463Z,3.37
2022-09-02T02:52:24.093Z,4.00
2022-09-02T02:54:54.702Z,4.00
2022-09-02T02:57:23.169Z,3.70
2022-09-02T02:59:53.822Z,3.20
2022-09-02T03:02:22.554Z,4.40
2022-09-02T03:04:54.184Z,4.20
2022-09-02T03:07:22.896Z,3.73
2022-09-02T03:09:51.480Z,4.23
2022-09-02T03:12:21.416Z,3.10
2022-09-02T03:14:49.885Z,3.57
2022-09-02T03:17:21.176Z,3.53
2022-09-02T03:19:50.879Z,3.20
2022-09-02T03:22:19.643Z,3.50
2022-09-02T03:24:48.204Z,3.30
2022-09-02T03:27:16.913Z,3.93
2022-09-02T03:29:45.698Z,4.17
2022-09-02T03:32:14.755Z,3.63
2022-09-02T03:34:46.148Z,3.73
2022-09-02T03:37:14.696Z,3.83
2022-09-02T03:39:43.215Z,3.80
2022-09-02T03:42:19.631Z,3.40
2022-09-02T03:44:50.844Z,4.03
2022-09-02T03:47:20.819Z,3.30
2022-09-02T03:49:55.469Z,3.60
2022-09-02T03:52:25.587Z,3.83
2022-09-02T03:54:54.243Z,3.67
2022-09-02T03:57:25.835Z,3.57
2022-09-02T03:59:55.306Z,3.83
2022-09-02T04:02:24.518Z,3.77
2022-09-02T04:04:54.561Z,3.50
2022-09-02T04:07:23.052Z,3.50
2022-09-02T04:09:51.672Z,4.00
2022-09-02T04:12:20.187Z,4.00
2022-09-02T04:14:48.677Z,4.30
2022-09-02T04:18:35.306Z,3.93
2022-09-02T04:21:43.058Z,4.50
2022-09-02T04:24:13.654Z,3.70
2022-09-02T04:26:46.585Z,3.73
2022-09-02T04:29:18.095Z,3.70
2022-09-02T04:31:50.075Z,4.30
2022-09-02T04:34:19.201Z,4.13
2022-09-02T04:36:51.510Z,4.13
2022-09-02T04:39:20.942Z,3.87
2022-09-02T04:41:50.779Z,4.43
2022-09-02T04:44:19.552Z,3.87
2022-09-02T04:46:50.439Z,3.53
2022-09-02T04:49:21.333Z,3.53
2022-09-02T04:51:55.096Z,5.10
2022-09-02T04:54:25.443Z,4.20
2022-09-02T04:56:55.729Z,4.47
2022-09-02T04:59:25.609Z,3.50
2022-09-02T05:02:02.980Z,4.00
2022-09-02T05:04:33.450Z,4.13
2022-09-02T05:07:04.695Z,3.80
2022-09-02T05:09:39.568Z,3.60
2022-09-02T05:12:08.931Z,3.73
2022-09-02T05:14:45.186Z,3.67
2022-09-02T05:17:14.181Z,3.40
2022-09-02T05:19:44.892Z,3.43
2022-09-02T05:22:16.330Z,3.50
2022-09-02T05:24:45.905Z,3.47
2022-09-02T05:27:16.558Z,3.50
2022-09-02T05:29:46.847Z,3.60
2022-09-02T05:32:17.942Z,3.77
2022-09-02T05:34:48.987Z,3.87
2022-09-02T05:37:19.622Z,3.93
2022-09-02T05:39:49.634Z,4.40
2022-09-02T05:42:20.354Z,3.50
2022-09-02T05:44:50.944Z,3.47
2022-09-02T05:47:22.278Z,3.60
2022-09-02T05:49:51.051Z,3.30
2022-09-02T05:52:21.048Z,2.90
2022-09-02T05:54:52.612Z,3.30
2022-09-02T05:57:24.270Z,3.00
2022-09-02T06:00:03.081Z,2.80
2022-09-02T06:02:44.195Z,3.17
2022-09-02T06:05:22.516Z,3.13
2022-09-02T06:08:00.104Z,3.50
2022-09-02T06:10:28.798Z,3.10
2022-09-02T06:12:57.894Z,2.70
2022-09-02T06:15:31.013Z,2.60
2022-09-02T06:18:01.844Z,2.83
2022-09-02T06:20:32.988Z,3.27
2022-09-02T06:23:05.078Z,3.27
2022-09-02T06:25:36.801Z,2.33
2022-09-02T06:28:07.370Z,2.20
2022-09-02T06:30:41.552Z,2.47
2022-09-02T06:33:11.705Z,2.47
2022-09-02T06:35:45.372Z,3.83
2022-09-02T06:38:17.991Z,2.70
2022-09-02T06:40:50.518Z,2.77
2022-09-02T06:43:23.880Z,2.63
2022-09-02T06:46:19.526Z,2.50
2022-09-02T06:48:51.218Z,2.47
2022-09-02T06:51:25.068Z,2.40
2022-09-02T06:53:56.340Z,2.97
2022-09-02T06:56:28.402Z,2.70
2022-09-02T06:58:58.063Z,2.90
2022-09-02T07:01:39.514Z,2.50
2022-09-02T07:04:26.662Z,2.60
2022-09-02T07:06:57.050Z,2.40
2022-09-02T07:09:32.137Z,2.37
2022-09-02T07:12:08.340Z,2.30
2022-09-02T07:14:45.018Z,2.47
2022-09-02T07:17:17.954Z,2.27
2022-09-02T07:19:50.984Z,2.30
2022-09-02T07:22:20.301Z,3.00
2022-09-02T07:24:50.314Z,2.33
2022-09-02T07:27:20.257Z,2.30
2022-09-02T07:29:50.810Z,2.30
2022-09-02T07:32:21.817Z,2.80
2022-09-02T07:34:51.152Z,2.30
2022-09-02T07:37:19.768Z,2.23
2022-09-02T07:39:51.202Z,2.30
2022-09-02T07:42:20.389Z,2.43
2022-09-02T07:44:49.275Z,1.93
2022-09-02T07:47:19.097Z,1.97
2022-09-02T07:52:38.401Z,2.20
2022-09-02T07:55:14.524Z,2.03
2022-09-02T07:57:44.115Z,1.97
2022-09-02T08:00:14.893Z,1.97
2022-09-02T08:02:44.593Z,2.03
2022-09-02T08:05:18.916Z,1.90
2022-09-02T08:07:47.598Z,2.53
2022-09-02T08:10:17.820Z,2.40
2022-09-02T08:12:46.916Z,2.10
2022-09-02T08:15:17.506Z,1.70
2022-09-02T08:17:46.231Z,3.07
2022-09-02T08:20:17.225Z,1.33
2022-09-02T08:22:50.880Z,2.00
2022-09-02T08:25:29.367Z,1.20
2022-09-02T08:28:00.449Z,1.90
2022-09-02T08:30:29.349Z,1.33
2022-09-02T08:32:58.411Z,1.60
2022-09-02T08:35:27.615Z,1.50
2022-09-02T08:37:56.151Z,1.40
2022-09-02T08:40:34.312Z,1.70
2022-09-02T08:43:06.249Z,3.70
2022-09-02T08:45:39.357Z,1.70
2022-09-02T08:48:16.089Z,1.77
2022-09-02T08:50:47.958Z,1.80
2022-09-02T08:53:28.426Z,1.80
2022-09-02T08:56:04.673Z,1.97
2022-09-02T08:58:40.256Z,2.40
2022-09-02T09:01:26.626Z,1.60
2022-09-02T09:04:26.186Z,1.40
2022-09-02T09:07:18.362Z,1.70
2022-09-02T09:10:06.970Z,1.53
2022-09-02T09:13:12.769Z,1.50
2022-09-02T09:15:53.805Z,1.47
2022-09-02T09:18:34.879Z,1.43
2022-09-02T09:21:06.036Z,1.20
2022-09-02T09:23:39.098Z,1.30
2022-09-02T09:26:12.549Z,1.50
2022-09-02T09:28:45.959Z,1.53
2022-09-02T09:31:18.362Z,1.90
2022-09-02T09:34:02.071Z,1.20
2022-09-02T09:36:51.177Z,1.20
2022-09-02T09:39:24.735Z,1.50
2022-09-02T09:41:56.085Z,1.30
2022-09-02T09:44:45.868Z,1.50
2022-09-02T09:47:20.506Z,1.50
2022-09-02T09:49:52.067Z,1.40
2022-09-02T09:52:26.117Z,1.50
2022-09-02T09:55:14.042Z,1.60
2022-09-02T09:57:45.714Z,1.07
2022-09-02T10:00:33.830Z,1.60
2022-09-02T10:03:06.778Z,1.30
2022-09-02T10:05:38.450Z,1.70
2022-09-02T10:08:21.823Z,1.30
2022-09-02T10:11:05.233Z,1.20
2022-09-02T10:13:36.655Z,1.27
2022-09-02T10:16:52.218Z,1.20
2022-09-02T10:19:35.086Z,1.60
2022-09-02T10:22:58.394Z,1.30
2022-09-02T10:25:41.026Z,1.80
2022-09-02T10:28:27.717Z,1.70
2022-09-02T10:31:10.284Z,1.57
2022-09-02T10:34:03.495Z,1.27
2022-09-02T10:36:43.097Z,1.30
2022-09-02T10:39:27.892Z,1.50
2022-09-02T10:42:10.308Z,1.57
2022-09-02T10:44:58.413Z,1.40
2022-09-02T10:47:35.231Z,1.40
2022-09-02T10:50:21.750Z,1.40
2022-09-02T10:53:24.530Z,1.20
2022-09-02T10:56:00.361Z,1.20
2022-09-02T10:58:49.750Z,1.20
2022-09-02T11:01:26.570Z,1.30
2022-09-02T11:04:09.682Z,1.40
2022-09-02T11:07:01.949Z,2.30
2022-09-02T11:09:38.372Z,1.17
2022-09-02T11:12:16.805Z,1.33
2022-09-02T11:15:00.564Z,1.50
2022-09-02T11:17:38.151Z,1.50
2022-09-02T11:20:22.013Z,1.13
2022-09-02T11:23:02.779Z,1.40
2022-09-02T11:25:42.681Z,1.67
2022-09-02T11:28:34.108Z,1.97
2022-09-02T11:31:16.681Z,1.80
2022-09-02T11:33:59.154Z,1.50
2022-09-02T11:36:33.329Z,1.50
2022-09-02T11:39:10.818Z,1.60
2022-09-02T11:42:05.821Z,1.50
2022-09-02T11:45:18.680Z,1.40
2022-09-02T11:48:36.933Z,1.30
2022-09-02T11:51:52.549Z,1.40
2022-09-02T11:54:27.093Z,1.13
2022-09-02T11:57:01.825Z,1.40
2022-09-02T12:00:08.550Z,1.40
2022-09-02T12:02:48.241Z,1.50
2022-09-02T12:05:51.558Z,1.27
2022-09-02T12:09:12.154Z,1.23
2022-09-02T12:11:55.091Z,1.33
2022-09-02T12:15:15.232Z,1.40
2022-09-02T12:18:15.130Z,1.20
2022-09-02T12:21:18.718Z,1.63
2022-09-02T12:24:22.644Z,1.00
2022-09-02T12:27:37.611Z,1.43
2022-09-02T12:30:11.273Z,1.03
2022-09-02T12:33:14.544Z,1.50
2022-09-02T12:35:57.504Z,1.20
2022-09-02T12:38:40.192Z,1.43
2022-09-02T12:41:30.997Z,1.40
2022-09-02T12:44:28.360Z,1.30
2022-09-02T12:47:07.026Z,1.20
2022-09-02T12:49:48.722Z,1.33
2022-09-02T12:52:47.010Z,1.40
2022-09-02T12:55:25.905Z,1.47
2022-09-02T12:58:08.185Z,1.40
2022-09-02T13:00:58.724Z,1.30
2022-09-02T13:03:52.179Z,1.30
2022-09-02T13:06:44.604Z,1.30
2022-09-02T13:09:57.121Z,1.47
2022-09-02T13:13:14.168Z,1.67
2022-09-02T13:16:18.477Z,1.30
2022-09-02T13:19:47.531Z,1.50
2022-09-02T13:22:57.065Z,1.23
2022-09-02T13:26:06.350Z,1.47
2022-09-02T13:29:39.453Z,1.30
2022-09-02T13:32:16.764Z,1.23
2022-09-02T13:34:48.336Z,1.37
2022-09-02T13:37:39.795Z,1.30
2022-09-02T13:40:20.302Z,1.60
2022-09-02T13:42:51.571Z,1.10
2022-09-02T13:45:22.637Z,1.20
2022-09-02T13:47:55.203Z,1.33
2022-09-02T13:50:27.396Z,1.20
2022-09-02T13:55:53.672Z,1.20
2022-09-02T13:58:41.269Z,1.13
2022-09-02T14:01:25.850Z,1.27
2022-09-02T14:03:59.319Z,1.23
2022-09-02T14:06:33.289Z,1.30
2022-09-02T14:09:07.276Z,1.20
2022-09-02T14:11:45.704Z,1.33
2022-09-02T14:14:17.421Z,1.30
2022-09-02T14:16:46.017Z,1.70
2022-09-02T14:19:26.751Z,1.27
2022-09-02T14:21:57.936Z,1.20
2022-09-02T14:24:29.462Z,1.33
2022-09-02T14:27:00.820Z,1.73
2022-09-02T14:29:32.209Z,1.20
2022-09-02T14:32:16.711Z,1.30
2022-09-02T14:34:48.641Z,1.30
2022-09-02T14:37:22.608Z,1.43
2022-09-02T14:40:12.263Z,1.33
2022-09-02T14:42:48.490Z,1.20
2022-09-02T14:45:28.748Z,1.13
2022-09-02T14:48:00.228Z,1.30
2022-09-02T14:50:36.634Z,1.40
2022-09-02T14:53:09.198Z,1.30
2022-09-02T14:55:56.735Z,1.13
2022-09-02T14:58:28.012Z,1.30
2022-09-02T15:01:00.491Z,1.37
2022-09-02T15:03:31.022Z,1.30
2022-09-02T15:06:00.857Z,1.33
2022-09-02T15:08:29.417Z,1.30
2022-09-02T15:11:01.201Z,1.40
2022-09-02T15:13:34.800Z,1.30
2022-09-02T15:16:06.374Z,1.23
2022-09-02T15:18:34.825Z,1.80
2022-09-02T15:21:09.751Z,1.17
2022-09-02T15:23:41.205Z,1.30
2022-09-02T15:26:10.373Z,1.00
2022-09-02T15:28:38.954Z,1.50
2022-09-02T15:31:07.836Z,1.23
2022-09-02T15:33:37.481Z,1.70
2022-09-02T15:36:13.975Z,1.23
2022-09-02T15:38:42.519Z,1.40
2022-09-02T15:41:13.786Z,1.50
2022-09-02T15:43:42.689Z,1.33
2022-09-02T15:46:27.597Z,1.30
2022-09-02T15:49:01.734Z,1.30
2022-09-02T15:51:33.717Z,1.60
2022-09-02T15:54:04.488Z,1.40
2022-09-02T15:56:36.341Z,1.40
2022-09-02T15:59:09.445Z,1.53
2022-09-02T16:01:41.019Z,1.50
2022-09-02T16:04:09.675Z,1.40
2022-09-02T16:06:42.505Z,1.20
2022-09-02T16:09:13.650Z,1.50
2022-09-02T16:11:45.823Z,1.50
2022-09-02T16:14:20.864Z,1.57
2022-09-02T16:16:50.864Z,1.43
2022-09-02T16:19:21.875Z,1.50
2022-09-02T16:21:53.507Z,1.50
2022-09-02T16:24:23.076Z,1.53
2022-09-02T16:26:52.656Z,1.50
2022-09-02T16:29:21.480Z,1.50
2022-09-02T16:32:07.920Z,1.40
2022-09-02T16:34:40.264Z,1.50
2022-09-02T16:37:10.076Z,1.37
2022-09-02T16:39:38.599Z,1.50
2022-09-02T16:42:07.502Z,1.57
2022-09-02T16:44:36.056Z,1.30
2022-09-02T16:47:04.861Z,1.40
2022-09-02T16:49:34.724Z,4.00
2022-09-02T16:52:03.756Z,5.30
2022-09-02T16:54:36.281Z,1.53
2022-09-02T16:57:08.859Z,1.50
2022-09-02T16:59:37.396Z,1.20
2022-09-02T17:02:06.135Z,1.37
2022-09-02T17:04:34.658Z,1.30
2022-09-02T17:07:03.082Z,1.20
2022-09-02T17:09:33.080Z,1.60
2022-09-02T17:12:01.511Z,1.30
2022-09-02T17:14:30.013Z,1.30
2022-09-02T17:16:58.575Z,1.07
2022-09-02T17:19:31.939Z,1.53
2022-09-02T17:22:01.337Z,1.63
2022-09-02T17:24:30.801Z,1.20
2022-09-02T17:27:02.047Z,1.30
2022-09-02T17:32:20.772Z,1.60
2022-09-02T17:34:51.461Z,1.50
2022-09-02T17:37:22.271Z,1.37
2022-09-02T17:39:51.094Z,1.23
2022-09-02T17:42:21.455Z,1.80
2022-09-02T17:44:49.951Z,1.50
2022-09-02T17:47:21.659Z,1.30
2022-09-02T17:49:50.815Z,1.70
2022-09-02T17:52:24.784Z,1.20
2022-09-02T17:54:55.157Z,1.40
2022-09-02T17:57:42.769Z,1.30
2022-09-02T18:00:14.623Z,1.43
2022-09-02T18:03:25.470Z,1.40
2022-09-02T18:06:08.513Z,1.40
2022-09-02T18:08:47.001Z,1.47
2022-09-02T18:11:15.651Z,1.20
2022-09-02T18:14:16.317Z,1.17
2022-09-02T18:17:04.615Z,1.70
2022-09-02T18:19:51.137Z,1.33
2022-09-02T18:23:00.836Z,1.70
2022-09-02T18:25:50.824Z,2.93
2022-09-02T18:28:41.812Z,1.33
2022-09-02T18:31:43.645Z,1.43
2022-09-02T18:34:36.029Z,1.40
2022-09-02T18:37:19.941Z,1.30
2022-09-02T18:40:08.755Z,1.53
2022-09-02T18:42:51.528Z,1.57
2022-09-02T18:45:29.376Z,1.93
2022-09-02T18:48:08.506Z,1.63
2022-09-02T18:50:50.841Z,1.50
2022-09-02T18:53:26.395Z,1.50
2022-09-02T18:55:57.142Z,1.60
2022-09-02T18:58:37.897Z,1.63
2022-09-02T19:01:15.569Z,1.50
2022-09-02T19:03:45.800Z,1.47
2022-09-02T19:06:24.448Z,1.50
2022-09-02T19:09:01.537Z,1.53
2022-09-02T19:11:35.050Z,1.70
2022-09-02T19:14:24.049Z,1.83
2022-09-02T19:16:52.616Z,1.50
2022-09-02T19:19:22.510Z,1.97
2022-09-02T19:21:55.209Z,1.70
2022-09-02T19:24:32.495Z,1.80
2022-09-02T19:27:06.782Z,1.50
2022-09-02T19:29:41.257Z,1.57
2022-09-02T19:32:11.266Z,1.50
2022-09-02T19:34:46.285Z,1.63
2022-09-02T19:37:15.753Z,1.50
2022-09-02T19:39:44.450Z,1.60
2022-09-02T19:42:13.021Z,1.63
2022-09-02T19:44:41.791Z,1.83
2022-09-02T19:48:02.746Z,1.73
2022-09-02T19:50:02.829Z,1.57
2022-09-02T19:52:32.291Z,1.60
2022-09-02T19:55:01.654Z,1.60
2022-09-02T19:57:30.426Z,1.57
2022-09-02T19:59:59.067Z,1.63
2022-09-02T20:02:27.834Z,1.27
2022-09-02T20:04:56.463Z,1.67
2022-09-02T20:07:26.844Z,1.73
2022-09-02T20:09:55.645Z,2.87
2022-09-02T20:12:24.485Z,1.80
2022-09-02T20:14:53.846Z,1.60
2022-09-02T20:17:23.434Z,1.40
2022-09-02T20:19:56.037Z,1.37
2022-09-02T20:22:25.914Z,1.57
2022-09-02T20:24:55.729Z,1.70
2022-09-02T20:27:47.276Z,1.80
2022-09-02T20:30:19.373Z,2.13
2022-09-02T20:32:58.528Z,2.17
2022-09-02T20:35:58.066Z,1.70
2022-09-02T20:39:00.746Z,1.63
2022-09-02T20:41:43.907Z,2.00
2022-09-02T20:44:43.617Z,2.00
2022-09-02T20:47:37.773Z,2.20
2022-09-02T20:50:26.866Z,2.10
2022-09-02T20:53:19.104Z,2.07
2022-09-02T20:55:56.192Z,2.23
2022-09-02T20:58:44.466Z,1.83
2022-09-02T21:01:18.907Z,2.07
2022-09-02T21:03:56.725Z,2.60
2022-09-02T21:06:32.958Z,2.10
2022-09-02T21:09:13.750Z,2.33
2022-09-02T21:11:53.445Z,2.20
2022-09-02T21:14:29.359Z,2.83
2022-09-02T21:17:05.811Z,2.30
2022-09-02T21:19:42.840Z,2.13
2022-09-02T21:22:22.159Z,2.40
2022-09-02T21:24:57.595Z,2.27
2022-09-02T21:27:34.680Z,2.33
2022-09-02T21:30:08.751Z,1.90
2022-09-02T21:32:41.941Z,2.10
2022-09-02T21:35:14.888Z,2.57
2022-09-02T21:37:46.490Z,2.27
2022-09-02T21:40:20.077Z,2.13
2022-09-02T21:43:23.925Z,2.77
2022-09-02T21:46:12.323Z,2.03
2022-09-02T21:49:02.233Z,2.20
2022-09-02T21:51:36.016Z,2.60
2022-09-02T21:54:32.497Z,2.37
2022-09-02T21:57:41.286Z,2.33
2022-09-02T22:00:15.962Z,2.43
2022-09-02T22:02:57.994Z,2.40
2022-09-02T22:05:47.516Z,2.30
2022-09-02T22:08:27.715Z,2.10
2022-09-02T22:11:10.140Z,2.37
2022-09-02T22:13:42.065Z,2.40
2022-09-02T22:16:28.181Z,2.40
2022-09-02T22:19:02.334Z,3.00
2022-09-02T22:21:39.883Z,2.20
2022-09-02T22:24:08.586Z,2.87
2022-09-02T22:26:42.446Z,2.73
2022-09-02T22:29:20.390Z,2.20
2022-09-02T22:31:55.721Z,2.70
2022-09-02T22:34:28.220Z,2.60
2022-09-02T22:37:05.000Z,2.27
2022-09-02T22:39:44.865Z,2.43
2022-09-02T22:42:24.411Z,2.60
2022-09-02T22:45:21.072Z,2.53
2022-09-02T22:48:22.590Z,2.00
2022-09-02T22:51:19.155Z,2.53
2022-09-02T22:53:50.410Z,2.37
2022-09-02T22:56:34.483Z,2.63
2022-09-02T22:59:24.204Z,3.10
2022-09-02T23:02:05.749Z,2.17
2022-09-02T23:04:56.054Z,2.40
2022-09-02T23:07:25.377Z,2.27
2022-09-02T23:10:02.982Z,2.47
2022-09-02T23:12:45.801Z,2.33
2022-09-02T23:15:33.040Z,2.70
2022-09-02T23:18:11.375Z,2.70
2022-09-02T23:20:53.725Z,2.47
2022-09-02T23:23:39.155Z,2.40
2022-09-02T23:26:33.147Z,2.40
2022-09-02T23:29:17.432Z,2.33
2022-09-02T23:32:07.658Z,2.70
2022-09-02T23:34:59.562Z,2.53
2022-09-02T23:37:42.523Z,2.50
2022-09-02T23:40:21.458Z,2.03
2022-09-02T23:42:51.148Z,2.40
2022-09-02T23:45:23.285Z,3.03
2022-09-02T23:48:28.673Z,2.30
2022-09-02T23:51:17.736Z,2.43
2022-09-02T23:54:21.348Z,2.40
2022-09-02T23:57:15.229Z,2.43
